Overview Statistics Trail Chart Weather Telemetry Raw packets
 

This is the latest recevied weather packets stored in our database for station/object YH8VA-1. If no packets are shown the sender has not sent any weather packets the latest 10 day(s).

<< 25 26 27 28 29 30 31 >>
Time Temp. Humidity Pressure Rain* Wind** Luminosity Snow
1777598295 34.44° C 57% 1001 hPa - - 0 W/m² -
1777597973 34.44° C 57% 1001 hPa - - 0 W/m² -
1777596455 33.89° C 57% 1001 hPa - - 0 W/m² -
1777596135 33.89° C 57% 1001 hPa - - 0 W/m² -
1777595812 33.89° C 58% 1001 hPa - - 0 W/m² -
1777595490 33.89° C 58% 1001 hPa - - 0 W/m² -
1777595168 33.89° C 58% 1001 hPa - - 0 W/m² -
1777594846 33.89° C 58% 1001 hPa - - 0 W/m² -
1777594524 33.89° C 58% 1001 hPa - - 0 W/m² -
1777594201 33.89° C 58% 1001 hPa - - 0 W/m² -
1777593879 33.89° C 58% 1001 hPa - - 0 W/m² -
1777593557 32.78° C 60% 1001 hPa - - 0 W/m² -
1777593235 33.89° C 57% 1001 hPa - - 0 W/m² -
1777592913 33.89° C 58% 1001 hPa - - 0 W/m² -
1777592591 32.78° C 60% 1001 hPa - - 0 W/m² -
1777592269 33.89° C 58% 1001 hPa - - 0 W/m² -
1777591947 34.44° C 57% 1001 hPa - - 0 W/m² -
1777591625 34.44° C 58% 1001 hPa - - 0 W/m² -
1777591303 33.89° C 58% 1001 hPa - - 0 W/m² -
1777590981 33.89° C 58% 1001 hPa - - 0 W/m² -
1777590659 33.89° C 58% 1001 hPa - - 0 W/m² -
1777590337 33.89° C 58% 1001 hPa - - 0 W/m² -
1777590015 33.33° C 59% 1001 hPa - - 0 W/m² -
1777589693 32.78° C 60% 1001 hPa - - 0 W/m² -
1777589371 32.78° C 60% 1001 hPa - - 0 W/m² -

* Rain since midnight (hover to see other rain measurements)
** Current wind speed in m/s (hover to see current wind gust speed)